SLET/SRZ METAR and TAF weather

Enter ICAO airport designator
Station Type Date Time Source
SLET METAR 2019/02/17 23:00 UTC NOAA

SLET 172300Z 30007KT 9999 FEW022 29/20 Q1009


Station Type Date Time Source
SLET Decoded METAR 2019/02/17 23:00 UTC NOAA

Santa Cruz / El Trompillo, Bolivia (SLET) 17-48S 063-11W 414M
Feb 17, 2019 - 06:00 PM EST / 2019.02.17 2300 UTC
Wind: from the WNW (300 degrees) at 8 MPH (7 KT):0
Visibility: greater than 7 mile(s):0
Sky conditions: mostly clear
Temperature: 84 F (29 C)
Dew Point: 68 F (20 C)
Relative Humidity: 58%
Pressure (altimeter): 29.80 in. Hg (1009 hPa)
ob: SLET 172300Z 30007KT 9999 FEW022 29/20 Q1009
cycle: 23

Station Type Date Time Source
SLET TAF 2019/02/17 18:55 UTC NOAA

TAF SLET 171655Z 1718/1818 33005KT 9999 SCT020 TX35/1719Z TN23/1810Z
TEMPO 1719/1723 FEW027TCU
BECMG 1723/1801 NSC
BECMG 1815/ 1818 33018KT SCT020 FEW027TCU


Example: see airport list